createdAt,value
2023-05-14T00:01:26.430Z,32.80
2023-05-14T00:03:53.821Z,26.02
2023-05-14T00:06:21.635Z,31.85
2023-05-14T00:08:48.787Z,32.05
2023-05-14T00:11:16.123Z,22.75
2023-05-14T00:13:43.459Z,36.75
2023-05-14T00:16:10.928Z,28.33
2023-05-14T00:18:38.255Z,31.65
2023-05-14T00:21:05.703Z,32.05
2023-05-14T00:23:32.860Z,44.03
2023-05-14T00:26:00.292Z,40.65
2023-05-14T00:28:27.753Z,22.88
2023-05-14T00:30:56.060Z,22.33
2023-05-14T00:33:23.439Z,20.92
2023-05-14T00:35:51.738Z,22.63
2023-05-14T00:38:19.657Z,59.28
2023-05-14T00:40:51.389Z,31.30
2023-05-14T00:43:20.439Z,34.80
2023-05-14T00:45:47.693Z,29.65
2023-05-14T00:48:15.031Z,26.05
2023-05-14T00:50:42.310Z,26.48
2023-05-14T00:53:10.778Z,18.80
2023-05-14T00:55:38.259Z,22.10
2023-05-14T00:58:05.592Z,20.15
2023-05-14T01:00:32.904Z,22.63
2023-05-14T01:03:01.966Z,22.75
2023-05-14T01:05:29.304Z,31.30
2023-05-14T01:07:56.704Z,32.58
2023-05-14T01:10:24.125Z,25.58
2023-05-14T01:12:51.804Z,26.15
2023-05-14T01:15:19.084Z,34.38
2023-05-14T01:17:46.577Z,24.75
2023-05-14T01:20:14.033Z,34.60
2023-05-14T01:22:41.270Z,27.88
2023-05-14T01:25:08.553Z,31.00
2023-05-14T01:27:35.980Z,42.45
2023-05-14T01:30:03.485Z,32.08
2023-05-14T01:32:31.065Z,26.60
2023-05-14T01:34:58.436Z,26.17
2023-05-14T01:37:25.680Z,27.48
2023-05-14T01:39:53.068Z,26.83
2023-05-14T01:42:20.784Z,26.75
2023-05-14T01:44:48.188Z,32.90
2023-05-14T01:47:15.700Z,36.13
2023-05-14T01:49:42.943Z,30.50
2023-05-14T01:52:10.197Z,34.22
2023-05-14T01:54:37.535Z,26.55
2023-05-14T01:57:04.867Z,30.35
2023-05-14T01:59:32.157Z,39.75
2023-05-14T02:01:59.427Z,36.95
2023-05-14T02:04:26.842Z,38.60
2023-05-14T02:06:54.132Z,42.13
2023-05-14T02:09:21.447Z,27.38
2023-05-14T02:11:48.662Z,35.80
2023-05-14T02:14:16.292Z,40.58
2023-05-14T02:16:43.598Z,26.33
2023-05-14T02:19:11.285Z,36.08
2023-05-14T02:21:38.671Z,35.85
2023-05-14T02:24:06.031Z,39.80
2023-05-14T02:26:33.306Z,41.40
2023-05-14T02:29:00.519Z,43.95
2023-05-14T02:31:27.782Z,36.08
2023-05-14T02:33:55.060Z,31.27
2023-05-14T02:36:22.355Z,32.10
2023-05-14T02:38:49.698Z,36.28
2023-05-14T02:41:16.901Z,29.13
2023-05-14T02:43:44.179Z,29.67
2023-05-14T02:46:11.384Z,23.98
2023-05-14T02:48:38.669Z,28.67
2023-05-14T02:51:07.751Z,29.50
2023-05-14T02:53:34.987Z,36.08
2023-05-14T02:56:02.264Z,28.65
2023-05-14T02:58:29.557Z,28.33
2023-05-14T03:00:56.994Z,22.60
2023-05-14T03:03:24.931Z,33.13
2023-05-14T03:05:53.006Z,30.88
2023-05-14T03:08:20.536Z,28.63
2023-05-14T03:10:47.794Z,33.88
2023-05-14T03:13:20.177Z,29.80
2023-05-14T03:15:47.624Z,40.17
2023-05-14T03:18:15.245Z,30.67
2023-05-14T03:20:42.593Z,25.95
2023-05-14T03:23:09.896Z,38.60
2023-05-14T03:25:37.201Z,39.58
2023-05-14T03:28:04.394Z,39.95
2023-05-14T03:30:31.744Z,38.47
2023-05-14T03:32:59.024Z,39.40
2023-05-14T03:35:26.487Z,51.75
2023-05-14T03:37:54.083Z,38.83
2023-05-14T03:40:21.727Z,36.83
2023-05-14T03:42:49.734Z,34.53
2023-05-14T03:45:17.061Z,37.47
2023-05-14T03:47:44.451Z,41.30
2023-05-14T03:50:12.008Z,35.47
2023-05-14T03:52:40.613Z,42.50
2023-05-14T03:55:08.473Z,37.53
2023-05-14T03:57:36.906Z,41.90
2023-05-14T04:00:04.116Z,41.30
2023-05-14T04:02:43.936Z,36.65
2023-05-14T04:05:11.659Z,42.97
2023-05-14T04:07:38.864Z,38.88
2023-05-14T04:10:06.438Z,35.25
2023-05-14T04:12:35.732Z,38.42
2023-05-14T04:15:04.206Z,36.45
2023-05-14T04:17:31.548Z,36.33
2023-05-14T04:19:58.848Z,37.58
2023-05-14T04:22:26.046Z,43.58
2023-05-14T04:24:53.659Z,41.22
2023-05-14T04:27:21.600Z,39.92
2023-05-14T04:29:48.881Z,38.08
2023-05-14T04:32:16.155Z,33.72
2023-05-14T04:34:43.492Z,41.08
2023-05-14T04:37:10.692Z,38.25
2023-05-14T04:39:38.091Z,45.70
2023-05-14T04:42:05.450Z,40.20
2023-05-14T04:44:33.138Z,33.10
2023-05-14T04:47:00.588Z,47.40
2023-05-14T04:49:27.813Z,39.10
2023-05-14T04:51:55.008Z,26.63
2023-05-14T04:54:22.286Z,36.70
2023-05-14T04:56:49.546Z,40.28
2023-05-14T04:59:16.900Z,38.30
2023-05-14T05:01:45.438Z,34.22
2023-05-14T05:04:13.105Z,33.78
2023-05-14T05:06:40.499Z,31.67
2023-05-14T05:09:08.941Z,25.00
2023-05-14T05:11:36.218Z,26.38
2023-05-14T05:14:03.537Z,24.15
2023-05-14T05:16:31.048Z,24.85
2023-05-14T05:18:58.345Z,27.52
2023-05-14T05:21:25.687Z,22.05
2023-05-14T05:23:52.991Z,24.67
2023-05-14T05:26:22.173Z,25.25
2023-05-14T05:28:49.417Z,22.30
2023-05-14T05:31:19.667Z,20.70
2023-05-14T05:33:47.260Z,24.48
2023-05-14T05:36:14.552Z,23.83
2023-05-14T05:38:41.863Z,23.83
2023-05-14T05:41:09.132Z,23.42
2023-05-14T05:43:36.720Z,21.70
2023-05-14T05:46:03.951Z,24.20
2023-05-14T05:48:31.190Z,21.77
2023-05-14T05:50:58.388Z,20.55
2023-05-14T05:53:25.735Z,21.70
2023-05-14T05:55:52.945Z,21.42
2023-05-14T05:58:20.335Z,21.88
2023-05-14T06:00:48.475Z,18.73
2023-05-14T06:03:16.064Z,20.58
2023-05-14T06:05:43.500Z,18.38
2023-05-14T06:08:10.916Z,22.90
2023-05-14T06:10:38.298Z,21.05
2023-05-14T06:13:05.565Z,23.15
2023-05-14T06:15:32.927Z,20.73
2023-05-14T06:18:00.198Z,20.20
2023-05-14T06:20:27.507Z,19.92
2023-05-14T06:22:54.758Z,19.40
2023-05-14T06:25:21.932Z,20.10
2023-05-14T06:27:49.194Z,21.98
2023-05-14T06:30:16.591Z,19.38
2023-05-14T06:32:43.859Z,25.10
2023-05-14T06:35:11.231Z,16.83
2023-05-14T06:37:38.589Z,20.55
2023-05-14T06:40:05.891Z,20.80
2023-05-14T06:42:33.186Z,22.70
2023-05-14T06:45:01.367Z,17.80
2023-05-14T06:47:28.668Z,20.38
2023-05-14T06:49:58.608Z,17.63
2023-05-14T06:52:26.127Z,25.55
2023-05-14T06:54:53.508Z,19.95
2023-05-14T06:57:21.143Z,23.63
2023-05-14T06:59:48.443Z,21.70
2023-05-14T07:02:15.725Z,20.88
2023-05-14T07:04:43.413Z,16.33
2023-05-14T07:07:13.633Z,19.98
2023-05-14T07:09:42.030Z,17.20
2023-05-14T07:12:09.318Z,21.75
2023-05-14T07:14:36.630Z,20.27
2023-05-14T07:17:03.884Z,18.95
2023-05-14T07:19:31.143Z,22.08
2023-05-14T07:21:58.374Z,23.83
2023-05-14T07:24:25.729Z,18.05
2023-05-14T07:26:53.537Z,18.55
2023-05-14T07:29:20.868Z,16.08
2023-05-14T07:31:48.166Z,15.57
2023-05-14T07:34:15.571Z,16.45
2023-05-14T07:36:42.925Z,19.17
2023-05-14T07:39:10.183Z,13.75
2023-05-14T07:41:37.379Z,14.50
2023-05-14T07:44:05.153Z,13.57
2023-05-14T07:46:32.432Z,15.30
2023-05-14T07:48:59.810Z,20.23
2023-05-14T07:51:28.532Z,19.40
2023-05-14T07:53:55.974Z,12.77
2023-05-14T07:56:23.208Z,20.67
2023-05-14T07:58:50.735Z,18.23
2023-05-14T08:01:18.008Z,18.25
2023-05-14T08:03:45.895Z,16.40
2023-05-14T08:06:13.201Z,15.98
2023-05-14T08:08:40.524Z,14.60
2023-05-14T08:11:07.821Z,13.07
2023-05-14T08:13:35.105Z,15.10
2023-05-14T08:16:02.924Z,14.75
2023-05-14T08:18:30.228Z,17.95
2023-05-14T08:20:57.923Z,21.40
2023-05-14T08:23:25.242Z,15.18
2023-05-14T08:25:52.513Z,20.30
2023-05-14T08:28:19.825Z,19.60
2023-05-14T08:30:47.750Z,13.70
2023-05-14T08:33:15.051Z,17.08
2023-05-14T08:35:42.294Z,16.15
2023-05-14T08:38:09.557Z,18.67
2023-05-14T08:40:36.794Z,22.70
2023-05-14T08:43:04.001Z,13.82
2023-05-14T08:45:34.092Z,18.20
2023-05-14T08:48:02.214Z,19.38
2023-05-14T08:50:30.636Z,14.73
2023-05-14T08:52:58.283Z,13.13
2023-05-14T08:55:26.226Z,13.77
2023-05-14T08:57:53.413Z,10.13
2023-05-14T09:00:20.700Z,14.43
2023-05-14T09:02:48.019Z,10.73
2023-05-14T09:05:15.259Z,21.17
2023-05-14T09:07:42.419Z,10.43
2023-05-14T09:10:09.675Z,11.77
2023-05-14T09:12:36.868Z,12.60
2023-05-14T09:15:04.796Z,12.98
2023-05-14T09:17:32.145Z,14.50
2023-05-14T09:19:59.651Z,14.55
2023-05-14T09:22:26.843Z,10.43
2023-05-14T09:24:54.246Z,11.20
2023-05-14T09:27:21.642Z,10.18
2023-05-14T09:29:48.914Z,11.32
2023-05-14T09:32:16.144Z,9.63
2023-05-14T09:34:43.683Z,8.25
2023-05-14T09:37:10.947Z,10.18
2023-05-14T09:39:38.244Z,7.18
2023-05-14T09:42:05.588Z,9.10
2023-05-14T09:44:32.932Z,9.27
2023-05-14T09:47:00.198Z,10.82
2023-05-14T09:49:27.757Z,10.77
2023-05-14T09:51:54.969Z,8.88
2023-05-14T09:54:22.275Z,6.28
2023-05-14T09:56:49.540Z,6.65
2023-05-14T09:59:16.793Z,7.90
2023-05-14T10:01:44.629Z,6.97
2023-05-14T10:04:12.285Z,6.75
2023-05-14T10:06:39.613Z,7.50
2023-05-14T10:09:06.936Z,7.55
2023-05-14T10:11:34.315Z,7.00
2023-05-14T10:14:01.575Z,7.93
2023-05-14T10:16:32.141Z,6.95
2023-05-14T10:18:59.507Z,8.18
2023-05-14T10:21:26.765Z,9.30
2023-05-14T10:23:54.221Z,6.80
2023-05-14T10:26:23.844Z,7.90
2023-05-14T10:28:51.477Z,7.18
2023-05-14T10:31:18.726Z,7.15
2023-05-14T10:33:46.000Z,7.22
2023-05-14T10:36:13.274Z,7.28
2023-05-14T10:38:40.754Z,7.97
2023-05-14T10:41:07.999Z,9.10
2023-05-14T10:43:35.291Z,6.43
2023-05-14T10:46:03.154Z,6.22
2023-05-14T10:48:30.547Z,7.55
2023-05-14T10:50:57.798Z,8.13
2023-05-14T10:53:25.095Z,6.88
2023-05-14T10:55:52.219Z,6.53
2023-05-14T10:58:19.503Z,6.53
2023-05-14T11:00:46.713Z,9.02
2023-05-14T11:03:13.993Z,6.40
2023-05-14T11:05:41.299Z,6.13
2023-05-14T11:08:08.655Z,10.30
2023-05-14T11:10:36.902Z,7.35
2023-05-14T11:13:04.220Z,9.00
2023-05-14T11:15:31.383Z,5.97
2023-05-14T11:18:01.114Z,5.50
2023-05-14T11:20:28.508Z,6.20
2023-05-14T11:22:55.797Z,6.70
2023-05-14T11:25:25.723Z,7.38
2023-05-14T11:27:56.064Z,6.15
2023-05-14T11:30:23.650Z,6.80
2023-05-14T11:32:51.376Z,7.80
2023-05-14T11:35:21.001Z,8.07
2023-05-14T11:37:48.249Z,6.05
2023-05-14T11:40:16.723Z,5.68
2023-05-14T11:42:44.174Z,5.30
2023-05-14T11:45:11.998Z,4.35
2023-05-14T11:47:39.448Z,5.82
2023-05-14T11:50:09.190Z,5.78
2023-05-14T11:52:36.757Z,7.60
2023-05-14T11:55:03.986Z,5.43
2023-05-14T11:57:31.238Z,5.88
2023-05-14T11:59:58.456Z,5.65
2023-05-14T12:02:25.910Z,6.20
2023-05-14T12:04:53.296Z,5.97
2023-05-14T12:07:20.670Z,5.97
2023-05-14T12:09:49.804Z,14.18
2023-05-14T12:12:17.244Z,7.80
2023-05-14T12:14:45.422Z,5.95
2023-05-14T12:17:13.018Z,7.60
2023-05-14T12:19:40.224Z,6.20
2023-05-14T12:22:07.496Z,9.93
2023-05-14T12:24:34.721Z,7.50
2023-05-14T12:27:01.958Z,5.65
2023-05-14T12:29:29.157Z,6.72
2023-05-14T12:31:56.465Z,6.57
2023-05-14T12:34:23.750Z,6.10
2023-05-14T12:36:51.014Z,6.05
2023-05-14T12:39:18.268Z,7.10
2023-05-14T12:41:45.720Z,8.98
2023-05-14T12:44:12.976Z,7.22
2023-05-14T12:46:40.277Z,9.02
2023-05-14T12:49:07.525Z,7.03
2023-05-14T12:51:34.753Z,5.63
2023-05-14T12:54:02.014Z,7.22
2023-05-14T12:56:30.982Z,9.32
2023-05-14T12:58:58.304Z,6.57
2023-05-14T13:01:25.727Z,6.72
2023-05-14T13:03:53.045Z,5.40
2023-05-14T13:06:20.397Z,9.88
2023-05-14T13:08:47.732Z,4.88
2023-05-14T13:11:15.026Z,5.07
2023-05-14T13:13:42.312Z,6.15
2023-05-14T13:16:10.641Z,8.38
2023-05-14T13:18:38.001Z,11.73
2023-05-14T13:21:06.462Z,4.80
2023-05-14T13:23:33.903Z,8.32
2023-05-14T13:26:01.168Z,5.07
2023-05-14T13:28:28.359Z,6.57
2023-05-14T13:30:56.094Z,5.18
2023-05-14T13:33:24.424Z,7.63
2023-05-14T13:35:51.714Z,5.00
2023-05-14T13:38:18.996Z,5.95
2023-05-14T13:40:46.325Z,5.00
2023-05-14T13:43:14.900Z,6.65
2023-05-14T13:45:42.204Z,5.97
2023-05-14T13:48:09.477Z,7.93
2023-05-14T13:50:36.728Z,8.85
2023-05-14T13:53:04.117Z,7.32
2023-05-14T13:55:31.503Z,9.20
2023-05-14T13:57:59.536Z,7.63
2023-05-14T14:00:27.627Z,9.25
2023-05-14T14:02:57.206Z,6.22
2023-05-14T14:08:04.392Z,7.43
2023-05-14T14:10:42.432Z,11.00
2023-05-14T14:13:09.766Z,9.27
2023-05-14T14:15:37.020Z,5.15
2023-05-14T14:18:04.714Z,4.65
2023-05-14T14:20:31.961Z,5.80
2023-05-14T14:22:59.251Z,7.70
2023-05-14T14:25:26.629Z,6.57
2023-05-14T14:27:53.897Z,5.65
2023-05-14T14:30:21.189Z,6.97
2023-05-14T14:32:48.448Z,7.20
2023-05-14T14:35:15.690Z,6.80
2023-05-14T14:37:45.036Z,9.00
2023-05-14T14:40:12.266Z,5.82
2023-05-14T14:42:39.620Z,6.50
2023-05-14T14:45:06.813Z,7.75
2023-05-14T14:47:34.168Z,4.53
2023-05-14T14:50:01.470Z,4.22
2023-05-14T14:52:28.758Z,4.13
2023-05-14T14:54:56.335Z,4.55
2023-05-14T14:57:23.724Z,4.40
2023-05-14T14:59:51.000Z,4.22
2023-05-14T15:02:18.420Z,4.43
2023-05-14T15:04:45.753Z,4.28
2023-05-14T15:07:13.106Z,4.20
2023-05-14T15:09:40.328Z,5.18
2023-05-14T15:12:09.013Z,6.18
2023-05-14T15:14:36.284Z,4.20
2023-05-14T15:17:03.568Z,3.90
2023-05-14T15:19:32.361Z,3.30
2023-05-14T15:21:59.519Z,5.03
2023-05-14T15:24:26.911Z,3.72
2023-05-14T15:26:54.227Z,3.25
2023-05-14T15:29:21.565Z,4.28
2023-05-14T15:31:48.880Z,6.65
2023-05-14T15:34:16.367Z,4.40
2023-05-14T15:36:43.697Z,3.85
2023-05-14T15:39:10.994Z,4.28
2023-05-14T15:41:38.191Z,10.23
2023-05-14T15:44:05.475Z,3.85
2023-05-14T15:46:32.794Z,4.97
2023-05-14T15:49:00.249Z,3.60
2023-05-14T15:51:27.488Z,3.88
2023-05-14T15:53:54.768Z,3.30
2023-05-14T15:56:22.311Z,6.18
2023-05-14T15:58:49.856Z,4.38
2023-05-14T16:01:17.121Z,8.30
2023-05-14T16:03:44.610Z,7.65
2023-05-14T16:06:11.958Z,4.70
2023-05-14T16:08:39.202Z,5.50
2023-05-14T16:11:07.661Z,6.72
2023-05-14T16:13:35.977Z,7.32
2023-05-14T16:16:03.230Z,8.68
2023-05-14T16:18:30.683Z,3.95
2023-05-14T16:20:58.035Z,6.22
2023-05-14T16:23:25.557Z,4.78
2023-05-14T16:25:52.764Z,6.15
2023-05-14T16:28:20.043Z,7.45
2023-05-14T16:30:47.198Z,6.82
2023-05-14T16:33:14.496Z,6.13
2023-05-14T16:35:41.812Z,9.00
2023-05-14T16:38:09.078Z,7.35
2023-05-14T16:40:37.458Z,9.15
2023-05-14T16:43:04.863Z,7.07
2023-05-14T16:45:34.313Z,6.50
2023-05-14T16:48:01.658Z,10.77
2023-05-14T16:50:29.004Z,7.18
2023-05-14T16:52:56.237Z,8.07
2023-05-14T16:55:23.753Z,11.38
2023-05-14T16:57:51.404Z,8.65
2023-05-14T17:00:18.761Z,12.70
2023-05-14T17:02:49.058Z,24.00
2023-05-14T17:05:16.403Z,15.60
2023-05-14T17:07:43.673Z,17.77
2023-05-14T17:10:11.110Z,18.90
2023-05-14T17:12:38.375Z,15.85
2023-05-14T17:15:05.872Z,20.98
2023-05-14T17:17:33.878Z,11.98
2023-05-14T17:20:01.312Z,26.85
2023-05-14T17:22:28.728Z,14.10
2023-05-14T17:24:56.007Z,13.93
2023-05-14T17:27:23.228Z,29.52
2023-05-14T17:29:53.294Z,36.30
2023-05-14T17:32:20.674Z,28.63
2023-05-14T17:34:47.965Z,39.55
2023-05-14T17:37:15.239Z,36.85
2023-05-14T17:39:42.465Z,37.60
2023-05-14T17:42:09.670Z,20.08
2023-05-14T17:44:36.967Z,30.85
2023-05-14T17:47:04.900Z,41.35
2023-05-14T17:49:32.245Z,28.17
2023-05-14T17:51:59.740Z,21.48
2023-05-14T17:54:26.967Z,28.60
2023-05-14T17:56:54.230Z,37.35
2023-05-14T17:59:22.975Z,34.15
2023-05-14T18:01:51.578Z,27.90
2023-05-14T18:04:20.765Z,39.72
2023-05-14T18:06:47.916Z,33.42
2023-05-14T18:09:15.353Z,39.60
2023-05-14T18:11:42.589Z,47.00
2023-05-14T18:14:10.194Z,35.83
2023-05-14T18:16:37.546Z,52.85
2023-05-14T18:19:04.935Z,31.70
2023-05-14T18:21:32.472Z,43.63
2023-05-14T18:23:59.873Z,55.70
2023-05-14T18:26:27.129Z,47.28
2023-05-14T18:28:54.386Z,50.08
2023-05-14T18:31:21.689Z,56.58
2023-05-14T18:33:49.106Z,44.08
2023-05-14T18:36:16.367Z,49.15
2023-05-14T18:38:43.722Z,79.30
2023-05-14T18:41:11.018Z,50.95
2023-05-14T18:43:38.264Z,54.13
2023-05-14T18:46:05.570Z,49.90
2023-05-14T18:48:32.917Z,57.67
2023-05-14T18:51:01.101Z,48.53
2023-05-14T18:53:29.349Z,72.47
2023-05-14T18:56:00.081Z,58.33
2023-05-14T18:58:27.366Z,76.25
2023-05-14T19:00:57.568Z,45.25
2023-05-14T19:03:24.927Z,57.90
2023-05-14T19:05:52.264Z,43.45
2023-05-14T19:08:19.565Z,51.05
2023-05-14T19:10:46.792Z,47.25
2023-05-14T19:13:15.896Z,48.08
2023-05-14T19:15:43.188Z,38.60
2023-05-14T19:18:10.883Z,53.78
2023-05-14T19:20:38.035Z,48.60
2023-05-14T19:23:05.340Z,60.97
2023-05-14T19:25:33.759Z,47.75
2023-05-14T19:28:01.700Z,42.40
2023-05-14T19:30:28.906Z,45.33
2023-05-14T19:32:56.258Z,51.17
2023-05-14T19:35:23.614Z,48.72
2023-05-14T19:37:51.118Z,47.95
2023-05-14T19:40:18.370Z,81.45
2023-05-14T19:42:45.671Z,33.85
2023-05-14T19:45:12.848Z,40.67
2023-05-14T19:47:40.245Z,29.77
2023-05-14T19:50:08.586Z,34.88
2023-05-14T19:52:35.861Z,40.15
2023-05-14T19:55:03.170Z,31.08
2023-05-14T19:57:30.383Z,38.58
2023-05-14T19:59:57.785Z,28.02
2023-05-14T20:02:25.225Z,30.50
2023-05-14T20:04:55.542Z,44.75
2023-05-14T20:07:25.108Z,49.05
2023-05-14T20:09:53.929Z,30.15
2023-05-14T20:12:21.228Z,29.05
2023-05-14T20:14:48.510Z,30.40
2023-05-14T20:17:15.751Z,39.22
2023-05-14T20:19:43.841Z,35.22
2023-05-14T20:22:11.367Z,34.30
2023-05-14T20:24:38.809Z,41.17
2023-05-14T20:27:06.311Z,36.58
2023-05-14T20:29:33.663Z,37.85
2023-05-14T20:32:01.088Z,25.60
2023-05-14T20:34:28.405Z,23.98
2023-05-14T20:36:56.227Z,37.38
2023-05-14T20:39:23.480Z,33.22
2023-05-14T20:41:50.820Z,26.73
2023-05-14T20:44:19.130Z,30.23
2023-05-14T20:46:47.762Z,18.50
2023-05-14T20:49:15.111Z,25.27
2023-05-14T20:51:42.401Z,32.70
2023-05-14T20:54:09.725Z,30.13
2023-05-14T20:56:37.025Z,24.83
2023-05-14T20:59:04.310Z,19.65
2023-05-14T21:01:31.553Z,21.50
2023-05-14T21:03:59.187Z,25.70
2023-05-14T21:06:26.634Z,22.55
2023-05-14T21:08:53.995Z,20.40
2023-05-14T21:11:23.080Z,30.38
2023-05-14T21:13:50.428Z,22.25
2023-05-14T21:16:17.892Z,34.03
2023-05-14T21:18:45.261Z,25.65
2023-05-14T21:21:12.525Z,29.05
2023-05-14T21:23:39.843Z,15.60
2023-05-14T21:26:07.035Z,23.88
2023-05-14T21:28:34.369Z,21.75
2023-05-14T21:31:01.589Z,21.42
2023-05-14T21:33:29.113Z,32.38
2023-05-14T21:35:56.478Z,26.73
2023-05-14T21:38:23.804Z,26.92
2023-05-14T21:40:51.431Z,26.45
2023-05-14T21:43:18.811Z,41.28
2023-05-14T21:45:47.361Z,23.48
2023-05-14T21:48:14.776Z,20.33
2023-05-14T21:50:42.068Z,18.80
2023-05-14T21:53:09.339Z,21.75
2023-05-14T21:55:36.542Z,14.05
2023-05-14T21:58:03.913Z,21.20
2023-05-14T22:00:31.820Z,28.17
2023-05-14T22:02:59.168Z,9.38
2023-05-14T22:05:28.481Z,21.88
2023-05-14T22:07:55.722Z,18.40
2023-05-14T22:10:22.944Z,14.68
2023-05-14T22:12:51.362Z,9.00
2023-05-14T22:15:18.998Z,12.65
2023-05-14T22:17:47.573Z,14.02
2023-05-14T22:20:14.813Z,23.55
2023-05-14T22:22:42.217Z,13.57
2023-05-14T22:25:09.591Z,21.80
2023-05-14T22:27:36.872Z,22.42
2023-05-14T22:30:04.891Z,15.25
2023-05-14T22:32:32.361Z,34.08
2023-05-14T22:35:00.025Z,21.55
2023-05-14T22:37:27.309Z,16.05
2023-05-14T22:39:54.526Z,12.90
2023-05-14T22:42:21.846Z,16.40
2023-05-14T22:44:49.062Z,16.80
2023-05-14T22:47:16.507Z,26.77
2023-05-14T22:49:43.869Z,20.25
2023-05-14T22:52:11.164Z,12.43
2023-05-14T22:54:38.348Z,9.45
2023-05-14T22:57:05.568Z,9.48
2023-05-14T22:59:32.821Z,18.52
2023-05-14T23:02:00.198Z,13.02
2023-05-14T23:04:27.557Z,16.80
2023-05-14T23:06:54.907Z,11.57
2023-05-14T23:09:22.122Z,7.28
2023-05-14T23:11:49.479Z,11.68
2023-05-14T23:14:18.064Z,5.22
2023-05-14T23:16:45.352Z,12.18
2023-05-14T23:19:12.780Z,10.73
2023-05-14T23:21:40.229Z,8.50
2023-05-14T23:24:07.539Z,10.70
2023-05-14T23:26:34.816Z,9.00
2023-05-14T23:29:02.048Z,14.68
2023-05-14T23:31:29.244Z,10.32
2023-05-14T23:33:56.949Z,10.68
2023-05-14T23:36:24.303Z,10.48
2023-05-14T23:38:51.675Z,10.52
2023-05-14T23:41:18.984Z,15.20
2023-05-14T23:43:49.014Z,11.93
2023-05-14T23:46:16.254Z,19.90
2023-05-14T23:48:43.530Z,10.07
2023-05-14T23:51:11.292Z,10.55
2023-05-14T23:53:38.648Z,4.82
2023-05-14T23:56:06.015Z,14.30
2023-05-14T23:58:33.747Z,12.57
